Time;durP1;ratioP1;P1;durP2;ratioP2;P2;SDS_P1;SDS_P2;PMS_P1;PMS_P2;Temp;Humidity;BMP_temperature;BMP_pressure;BME280_temperature;BME280_humidity;BME280_pressure;Samples;Min_cycle;Max_cycle;Signal;HPM_P1;HPM_P2
2024/01/02 00:00:25;;;;;;;3.10;1.40;;;;;;;;;;4997419;28;20225;-84
2024/01/02 00:03:29;;;;;;;2.60;1.00;;;;;;;;;;4997984;28;20187;-84
2024/01/02 00:06:33;;;;;;;2.63;1.30;;;;;;;;;;4985345;28;20182;-84
2024/01/02 00:09:38;;;;;;;3.63;1.10;;;;;;;;;;4995517;28;20539;-83
2024/01/02 00:12:42;;;;;;;4.50;1.13;;;;;;;;;;4995541;28;20190;-83
2024/01/02 00:15:46;;;;;;;2.10;1.10;;;;;;;;;;4996372;28;20186;-83
2024/01/02 00:18:50;;;;;;;2.30;1.03;;;;;;;;;;4995889;28;20186;-83
2024/01/02 00:21:56;;;;;;;7.13;1.30;;;;;;;;;;4964463;28;20256;-83
2024/01/02 00:25:00;;;;;;;4.17;1.07;;;;;;;;;;4975340;28;20207;-83
2024/01/02 00:28:04;;;;;;;8.67;1.30;;;;;;;;;;4964371;28;20551;-83
2024/01/02 00:31:08;;;;;;;3.27;1.30;;;;;;;;;;4964408;28;20218;-83
2024/01/02 00:34:13;;;;;;;2.57;1.10;;;;;;;;;;4975392;28;20187;-83
2024/01/02 00:37:17;;;;;;;3.27;1.10;;;;;;;;;;4974816;28;20182;-84
2024/01/02 00:40:22;;;;;;;3.93;1.20;;;;;;;;;;4973605;28;20223;-84
2024/01/02 00:43:26;;;;;;;1.77;1.20;;;;;;;;;;4973565;28;20732;-84
2024/01/02 00:46:31;;;;;;;1.67;1.10;;;;;;;;;;4962671;28;20628;-84
2024/01/02 00:49:35;;;;;;;2.90;1.30;;;;;;;;;;4973980;28;20648;-84
2024/01/02 00:52:40;;;;;;;1.37;1.10;;;;;;;;;;4973411;28;20191;-84
2024/01/02 00:55:44;;;;;;;2.03;1.07;;;;;;;;;;4974324;28;20175;-84
2024/01/02 00:58:48;;;;;;;3.93;1.10;;;;;;;;;;4962697;28;20183;-84
2024/01/02 01:01:52;;;;;;;5.47;1.07;;;;;;;;;;4962462;28;20226;-85
2024/01/02 01:04:56;;;;;;;2.17;1.00;;;;;;;;;;4963208;28;20218;-85
2024/01/02 01:08:01;;;;;;;2.97;1.20;;;;;;;;;;4962485;28;20191;-83
2024/01/02 01:11:05;;;;;;;1.60;1.00;;;;;;;;;;4973090;28;20222;-84
2024/01/02 01:14:09;;;;;;;2.10;1.13;;;;;;;;;;4973379;28;20619;-84
2024/01/02 01:17:13;;;;;;;2.63;1.00;;;;;;;;;;4962462;28;20545;-85
2024/01/02 01:20:17;;;;;;;3.17;1.17;;;;;;;;;;4961853;28;20575;-84
2024/01/02 01:23:22;;;;;;;2.60;1.00;;;;;;;;;;4961971;28;20644;-84
2024/01/02 01:26:26;;;;;;;3.50;1.03;;;;;;;;;;4961951;28;20631;-85
2024/01/02 01:29:30;;;;;;;4.07;1.13;;;;;;;;;;4962573;28;20191;-84
2024/01/02 01:32:34;;;;;;;1.73;0.93;;;;;;;;;;4961840;28;20182;-84
2024/01/02 01:35:38;;;;;;;5.27;1.30;;;;;;;;;;4972956;28;20179;-85
2024/01/02 01:38:42;;;;;;;1.60;0.80;;;;;;;;;;4974235;28;20639;-85
2024/01/02 01:41:47;;;;;;;1.57;1.20;;;;;;;;;;4961599;28;20222;-85
2024/01/02 01:44:50;;;;;;;1.90;1.30;;;;;;;;;;4973019;28;20222;-85
2024/01/02 01:47:54;;;;;;;3.97;1.23;;;;;;;;;;4972758;28;20191;-85
2024/01/02 01:50:59;;;;;;;2.13;1.00;;;;;;;;;;4972868;28;20591;-85
2024/01/02 01:54:04;;;;;;;2.07;1.07;;;;;;;;;;4973579;28;20182;-85
2024/01/02 01:57:08;;;;;;;3.00;1.10;;;;;;;;;;4961791;28;20187;-85
2024/01/02 02:00:12;;;;;;;3.43;1.03;;;;;;;;;;4973425;28;20599;-85
2024/01/02 02:03:17;;;;;;;2.77;1.13;;;;;;;;;;4951044;28;20195;-85
2024/01/02 02:06:22;;;;;;;2.87;1.03;;;;;;;;;;4973340;28;20644;-85
2024/01/02 02:09:26;;;;;;;2.50;1.10;;;;;;;;;;4952689;28;20547;-83
2024/01/02 02:12:30;;;;;;;2.73;1.10;;;;;;;;;;4962153;28;20191;-85
2024/01/02 02:15:38;;;;;;;5.13;1.00;;;;;;;;;;4972725;28;20186;-85
2024/01/02 02:18:43;;;;;;;1.87;1.10;;;;;;;;;;4961884;28;20187;-85
2024/01/02 02:21:52;;;;;;;1.77;1.27;;;;;;;;;;4961875;28;20218;-85
2024/01/02 02:24:55;;;;;;;3.00;1.00;;;;;;;;;;4972561;28;20211;-85
2024/01/02 02:28:00;;;;;;;3.07;1.17;;;;;;;;;;4972763;28;20195;-85
2024/01/02 02:31:05;;;;;;;2.60;1.00;;;;;;;;;;4964396;28;20223;-85
2024/01/02 02:34:10;;;;;;;2.50;1.30;;;;;;;;;;4966429;28;20183;-83
2024/01/02 02:37:14;;;;;;;2.37;1.10;;;;;;;;;;4977182;28;20178;-83
2024/01/02 02:40:18;;;;;;;3.77;1.20;;;;;;;;;;4976267;28;20214;-83
2024/01/02 02:43:22;;;;;;;2.80;1.07;;;;;;;;;;4965491;28;20206;-83
2024/01/02 02:46:26;;;;;;;1.57;1.20;;;;;;;;;;4965573;28;20571;-83
2024/01/02 02:49:31;;;;;;;2.40;0.90;;;;;;;;;;4976348;28;20640;-83
2024/01/02 02:52:35;;;;;;;2.03;0.87;;;;;;;;;;4964974;28;20187;-83
2024/01/02 02:55:39;;;;;;;1.87;1.00;;;;;;;;;;4976074;28;20183;-83
2024/01/02 02:58:43;;;;;;;2.00;1.20;;;;;;;;;;4976768;28;20187;-83
2024/01/02 03:01:47;;;;;;;2.57;0.93;;;;;;;;;;4954170;28;20218;-83
2024/01/02 03:04:51;;;;;;;1.73;0.83;;;;;;;;;;4964618;28;20203;-83
2024/01/02 03:07:57;;;;;;;2.77;1.17;;;;;;;;;;4975556;28;20206;-83
2024/01/02 03:11:02;;;;;;;3.53;1.03;;;;;;;;;;4976481;28;20219;-83
2024/01/02 03:14:06;;;;;;;3.40;0.80;;;;;;;;;;4979417;28;20183;-83
2024/01/02 03:17:12;;;;;;;1.60;0.90;;;;;;;;;;4977060;28;20176;-83
2024/01/02 03:20:16;;;;;;;4.00;0.90;;;;;;;;;;4977734;28;20214;-83
2024/01/02 03:23:20;;;;;;;2.40;1.00;;;;;;;;;;4977109;28;20183;-83
2024/01/02 03:26:25;;;;;;;0.90;0.73;;;;;;;;;;4977082;28;20210;-84
2024/01/02 03:29:29;;;;;;;2.57;0.83;;;;;;;;;;4965332;28;20187;-83
2024/01/02 03:32:33;;;;;;;1.87;0.83;;;;;;;;;;4976141;28;20179;-83
2024/01/02 03:35:37;;;;;;;2.20;0.90;;;;;;;;;;4964905;28;20183;-83
2024/01/02 03:38:44;;;;;;;1.33;0.83;;;;;;;;;;4976624;28;20183;-83
2024/01/02 03:41:48;;;;;;;1.27;0.80;;;;;;;;;;4975446;28;20214;-83
2024/01/02 03:44:52;;;;;;;2.70;1.00;;;;;;;;;;4975276;28;20230;-83
2024/01/02 03:47:56;;;;;;;1.40;0.90;;;;;;;;;;4974812;28;20187;-83
2024/01/02 03:51:01;;;;;;;2.23;0.90;;;;;;;;;;4975165;28;20598;-83
2024/01/02 03:54:05;;;;;;;1.83;0.77;;;;;;;;;;4963729;28;20187;-83
2024/01/02 03:57:09;;;;;;;0.83;0.73;;;;;;;;;;4975469;28;20179;-84
2024/01/02 04:00:14;;;;;;;1.10;0.90;;;;;;;;;;4976807;28;20218;-84
2024/01/02 04:03:18;;;;;;;2.53;0.70;;;;;;;;;;4976105;28;20178;-84
2024/01/02 04:06:22;;;;;;;2.43;0.70;;;;;;;;;;4965151;28;20567;-84
2024/01/02 04:09:26;;;;;;;6.50;1.33;;;;;;;;;;4976170;28;20191;-84
2024/01/02 04:12:30;;;;;;;2.63;0.80;;;;;;;;;;4975321;28;20183;-84
2024/01/02 04:15:35;;;;;;;1.13;0.77;;;;;;;;;;4964547;28;20187;-84
2024/01/02 04:18:41;;;;;;;3.03;0.90;;;;;;;;;;4964238;28;20191;-84
2024/01/02 04:21:47;;;;;;;2.63;0.80;;;;;;;;;;4975518;28;20218;-84
2024/01/02 04:24:51;;;;;;;2.03;0.80;;;;;;;;;;4975530;28;20179;-84
2024/01/02 04:27:56;;;;;;;1.70;0.83;;;;;;;;;;4976217;28;20643;-83
2024/01/02 04:31:00;;;;;;;4.00;0.87;;;;;;;;;;4975943;28;20222;-84
2024/01/02 04:34:04;;;;;;;1.27;0.73;;;;;;;;;;4974912;28;20632;-84
2024/01/02 04:37:10;;;;;;;1.53;0.70;;;;;;;;;;4964337;28;20183;-84
2024/01/02 04:40:14;;;;;;;0.73;0.57;;;;;;;;;;4964291;28;20587;-84
2024/01/02 04:43:18;;;;;;;0.97;0.70;;;;;;;;;;4964305;28;20202;-84
2024/01/02 04:46:23;;;;;;;1.73;0.80;;;;;;;;;;4965100;28;20202;-84
2024/01/02 04:49:26;;;;;;;1.90;0.70;;;;;;;;;;4976661;28;20574;-84
2024/01/02 04:52:31;;;;;;;3.93;0.90;;;;;;;;;;4974726;28;20183;-84
2024/01/02 04:55:35;;;;;;;2.07;0.90;;;;;;;;;;4975278;28;20183;-84
2024/01/02 04:58:40;;;;;;;2.73;0.90;;;;;;;;;;4977763;28;20187;-84
2024/01/02 05:01:44;;;;;;;2.73;0.90;;;;;;;;;;4964335;28;20226;-84
2024/01/02 05:04:49;;;;;;;1.93;0.60;;;;;;;;;;4964333;28;20183;-84
2024/01/02 05:07:53;;;;;;;5.03;0.70;;;;;;;;;;4975325;28;20187;-84
2024/01/02 05:10:57;;;;;;;1.40;0.60;;;;;;;;;;4975352;28;20223;-84
2024/01/02 05:14:01;;;;;;;1.43;0.60;;;;;;;;;;4974628;28;20639;-84
2024/01/02 05:17:08;;;;;;;2.33;0.60;;;;;;;;;;4964155;28;20187;-84
2024/01/02 05:20:12;;;;;;;1.73;0.70;;;;;;;;;;4975740;28;20223;-84
2024/01/02 05:23:18;;;;;;;1.97;0.60;;;;;;;;;;4966030;28;20208;-84
2024/01/02 05:26:22;;;;;;;0.90;0.70;;;;;;;;;;4977045;28;20202;-84
2024/01/02 05:29:27;;;;;;;1.33;0.50;;;;;;;;;;4976348;28;20652;-84
2024/01/02 05:32:31;;;;;;;2.20;0.70;;;;;;;;;;4964278;28;20186;-84
2024/01/02 05:35:35;;;;;;;2.27;0.50;;;;;;;;;;4975244;28;20183;-84
2024/01/02 05:38:39;;;;;;;1.67;0.80;;;;;;;;;;4974739;28;20178;-84
2024/01/02 05:41:43;;;;;;;0.90;0.53;;;;;;;;;;4974512;28;20219;-84
2024/01/02 05:44:48;;;;;;;1.73;0.70;;;;;;;;;;4975832;28;20202;-84
2024/01/02 05:47:52;;;;;;;1.03;0.60;;;;;;;;;;4980908;28;20187;-84
2024/01/02 05:50:57;;;;;;;1.90;0.70;;;;;;;;;;4957994;28;20223;-84
2024/01/02 05:54:01;;;;;;;1.07;0.50;;;;;;;;;;4968922;28;20559;-84
2024/01/02 05:57:05;;;;;;;3.07;0.80;;;;;;;;;;4980603;28;20179;-85
2024/01/02 06:00:11;;;;;;;0.83;0.60;;;;;;;;;;4969249;28;20191;-84
2024/01/02 06:03:16;;;;;;;2.03;0.80;;;;;;;;;;4981521;28;20187;-84
2024/01/02 06:06:20;;;;;;;0.63;0.53;;;;;;;;;;4982806;28;20218;-84
2024/01/02 06:09:24;;;;;;;1.40;0.70;;;;;;;;;;4982633;28;20179;-84
2024/01/02 06:12:29;;;;;;;1.57;0.80;;;;;;;;;;4981762;28;20183;-84
2024/01/02 06:15:33;;;;;;;0.90;0.60;;;;;;;;;;4982628;28;20184;-84
2024/01/02 06:18:37;;;;;;;2.57;0.63;;;;;;;;;;4982848;28;20187;-83
2024/01/02 06:21:42;;;;;;;1.50;0.60;;;;;;;;;;4972092;28;20297;-83
2024/01/02 06:24:46;;;;;;;1.30;0.60;;;;;;;;;;5040834;28;20183;-83
2024/01/02 06:27:50;;;;;;;0.50;0.50;;;;;;;;;;4984180;28;20175;-83
2024/01/02 06:30:55;;;;;;;0.80;0.60;;;;;;;;;;4984402;28;20214;-83
2024/01/02 06:33:59;;;;;;;0.50;0.50;;;;;;;;;;4973525;28;20551;-83
2024/01/02 06:37:03;;;;;;;1.07;0.60;;;;;;;;;;4984313;28;20183;-84
2024/01/02 06:40:11;;;;;;;1.23;0.50;;;;;;;;;;4983336;28;20175;-83
2024/01/02 06:43:15;;;;;;;3.17;0.70;;;;;;;;;;4972379;28;20622;-84
2024/01/02 06:46:22;;;;;;;1.07;0.57;;;;;;;;;;4972883;28;20207;-82
2024/01/02 06:49:26;;;;;;;1.87;0.50;;;;;;;;;;4983539;28;20183;-83
2024/01/02 06:52:30;;;;;;;0.53;0.50;;;;;;;;;;4982887;28;20183;-84
2024/01/02 06:55:34;;;;;;;0.57;0.50;;;;;;;;;;4981272;28;20183;-83
2024/01/02 06:58:44;;;;;;;0.67;0.53;;;;;;;;;;4983816;28;20660;-83
2024/01/02 07:01:48;;;;;;;1.80;0.50;;;;;;;;;;4971354;28;20222;-83
2024/01/02 07:04:52;;;;;;;0.60;0.50;;;;;;;;;;4982476;28;20187;-83
2024/01/02 07:07:58;;;;;;;1.10;0.50;;;;;;;;;;4983328;28;20172;-83
2024/01/02 07:11:03;;;;;;;0.50;0.40;;;;;;;;;;4982773;28;20222;-83
2024/01/02 07:14:07;;;;;;;1.83;0.47;;;;;;;;;;4982302;28;20187;-84
2024/01/02 07:17:15;;;;;;;0.50;0.50;;;;;;;;;;4970405;28;20187;-83
2024/01/02 07:20:20;;;;;;;0.60;0.60;;;;;;;;;;4970500;28;20218;-83
2024/01/02 07:23:24;;;;;;;1.43;0.50;;;;;;;;;;4981661;28;20183;-84
2024/01/02 07:26:28;;;;;;;0.80;0.47;;;;;;;;;;4981440;28;20211;-83
2024/01/02 07:29:32;;;;;;;0.50;0.43;;;;;;;;;;4982185;28;20183;-84
2024/01/02 07:32:36;;;;;;;0.60;0.50;;;;;;;;;;4983046;28;20183;-84
2024/01/02 07:35:42;;;;;;;0.60;0.50;;;;;;;;;;4962235;28;78159;-84
2024/01/02 07:38:46;;;;;;;0.60;0.40;;;;;;;;;;4929557;28;20243;-84
2024/01/02 07:41:50;;;;;;;16.37;8.30;;;;;;;;;;4942054;29;20228;-84
2024/01/02 07:44:55;;;;;;;1.30;1.20;;;;;;;;;;4941725;29;20688;-84
2024/01/02 07:48:00;;;;;;;2.63;1.40;;;;;;;;;;4942006;29;20212;-84
2024/01/02 07:51:05;;;;;;;1.87;1.60;;;;;;;;;;4941723;29;20220;-84
2024/01/02 07:54:09;;;;;;;2.27;1.20;;;;;;;;;;4941481;29;20188;-84
2024/01/02 07:57:13;;;;;;;1.23;1.10;;;;;;;;;;4943071;29;20541;-84
2024/01/02 08:00:17;;;;;;;0.83;0.77;;;;;;;;;;4942260;29;20581;-84
2024/01/02 08:03:21;;;;;;;1.23;0.80;;;;;;;;;;4941486;29;20193;-84
2024/01/02 08:06:26;;;;;;;0.63;0.60;;;;;;;;;;4941733;29;20216;-84
2024/01/02 08:09:30;;;;;;;0.63;0.60;;;;;;;;;;4930483;29;20180;-84
2024/01/02 08:12:35;;;;;;;1.03;0.80;;;;;;;;;;4941868;29;20193;-83
2024/01/02 08:15:51;;;;;;;3.13;0.97;;;;;;;;;;4932267;29;20185;-84
2024/01/02 08:18:56;;;;;;;0.83;0.63;;;;;;;;;;4941427;29;20189;-84
2024/01/02 08:22:01;;;;;;;0.60;0.60;;;;;;;;;;4930167;29;20224;-84
2024/01/02 08:25:08;;;;;;;1.90;0.70;;;;;;;;;;4939104;29;20669;-84
2024/01/02 08:28:12;;;;;;;0.50;0.50;;;;;;;;;;4938731;29;20216;-84
2024/01/02 08:31:19;;;;;;;0.60;0.60;;;;;;;;;;4940051;29;20216;-84
2024/01/02 08:34:26;;;;;;;3.33;0.57;;;;;;;;;;4938881;29;20180;-84
2024/01/02 08:37:31;;;;;;;1.73;0.67;;;;;;;;;;4937543;29;20621;-83
2024/01/02 08:40:36;;;;;;;0.70;0.50;;;;;;;;;;4937648;29;20231;-84
2024/01/02 08:43:41;;;;;;;1.67;0.60;;;;;;;;;;4937686;29;20208;-84
2024/01/02 08:46:45;;;;;;;0.70;0.57;;;;;;;;;;4937325;29;20212;-83
2024/01/02 08:49:49;;;;;;;0.73;0.70;;;;;;;;;;4938148;29;20645;-84
2024/01/02 08:52:54;;;;;;;2.10;0.80;;;;;;;;;;4938091;29;20184;-83
2024/01/02 08:55:58;;;;;;;1.53;0.50;;;;;;;;;;4937209;29;20180;-83
2024/01/02 08:59:02;;;;;;;0.70;0.70;;;;;;;;;;4937276;29;20196;-83
2024/01/02 09:02:06;;;;;;;0.93;0.70;;;;;;;;;;4937822;29;20720;-83
2024/01/02 09:05:10;;;;;;;0.80;0.70;;;;;;;;;;4947507;28;20207;-83
2024/01/02 09:08:15;;;;;;;2.83;0.60;;;;;;;;;;4969409;28;20218;-83
2024/01/02 09:11:19;;;;;;;0.60;0.60;;;;;;;;;;4976719;28;20219;-84
2024/01/02 09:14:23;;;;;;;7.03;1.10;;;;;;;;;;4982082;28;20187;-84
2024/01/02 09:17:27;;;;;;;1.87;0.60;;;;;;;;;;4969573;28;20179;-83
2024/01/02 09:20:32;;;;;;;3.67;0.67;;;;;;;;;;4963932;28;20587;-84
2024/01/02 09:23:36;;;;;;;2.13;0.80;;;;;;;;;;4975778;28;20187;-84
2024/01/02 09:26:44;;;;;;;1.57;0.70;;;;;;;;;;4976107;28;20214;-84
2024/01/02 09:29:49;;;;;;;1.07;0.77;;;;;;;;;;4936934;29;20647;-83
2024/01/02 09:32:54;;;;;;;0.53;0.53;;;;;;;;;;4937231;29;20188;-84
2024/01/02 09:35:58;;;;;;;1.20;0.80;;;;;;;;;;4936090;29;20180;-83
2024/01/02 09:39:03;;;;;;;0.70;0.70;;;;;;;;;;4937527;29;20184;-84
2024/01/02 09:42:16;;;;;;;1.23;0.80;;;;;;;;;;4935858;29;20708;-83
2024/01/02 09:45:49;;;;;;;0.70;0.60;;;;;;;;;;4937089;29;20184;-83
2024/01/02 09:49:14;;;;;;;0.60;0.60;;;;;;;;;;4936432;29;20649;-83
2024/01/02 09:53:00;;;;;;;0.60;0.60;;;;;;;;;;4936253;29;20181;-82
2024/01/02 09:56:39;;;;;;;1.77;0.60;;;;;;;;;;4932345;29;20221;-82
2024/01/02 10:00:03;;;;;;;2.70;1.53;;;;;;;;;;4926618;28;20199;-82
2024/01/02 10:03:28;;;;;;;1.60;0.90;;;;;;;;;;4933387;29;20193;-82
2024/01/02 10:06:58;;;;;;;3.23;0.80;;;;;;;;;;4931323;28;20553;-82
2024/01/02 10:10:03;;;;;;;1.30;1.00;;;;;;;;;;4932593;29;20192;-82
2024/01/02 10:13:17;;;;;;;1.83;1.00;;;;;;;;;;4942150;29;20196;-82
2024/01/02 10:16:34;;;;;;;1.43;1.10;;;;;;;;;;4942168;29;20276;-82
2024/01/02 10:20:06;;;;;;;1.00;0.90;;;;;;;;;;4942763;29;20185;-83
2024/01/02 10:23:33;;;;;;;5.40;0.70;;;;;;;;;;4931057;29;20177;-85
2024/01/02 10:26:44;;;;;;;0.93;0.60;;;;;;;;;;4943836;28;20224;-86
2024/01/02 10:30:07;;;;;;;1.07;0.60;;;;;;;;;;4931437;29;20189;-85
2024/01/02 10:33:20;;;;;;;1.27;1.10;;;;;;;;;;4930558;29;20181;-85
2024/01/02 10:36:27;;;;;;;5.77;5.17;;;;;;;;;;4941574;29;20172;-85
2024/01/02 10:39:41;;;;;;;2.77;2.40;;;;;;;;;;4931430;29;20489;-85
2024/01/02 10:43:07;;;;;;;3.27;2.57;;;;;;;;;;4941373;29;20185;-82
2024/01/02 10:46:33;;;;;;;2.00;1.80;;;;;;;;;;4932166;29;20185;-82
2024/01/02 10:49:52;;;;;;;3.10;2.60;;;;;;;;;;4942555;28;20197;-82
2024/01/02 10:53:22;;;;;;;2.97;2.73;;;;;;;;;;4936571;29;20180;-82
2024/01/02 10:56:45;;;;;;;4.40;3.77;;;;;;;;;;4936280;29;20583;-82
2024/01/02 11:00:08;;;;;;;2.20;1.40;;;;;;;;;;4935868;29;20181;-83
2024/01/02 11:03:15;;;;;;;1.60;1.17;;;;;;;;;;4952955;28;20199;-82
2024/01/02 11:06:42;;;;;;;1.70;1.00;;;;;;;;;;4955338;29;20184;-82
2024/01/02 11:10:11;;;;;;;2.27;1.60;;;;;;;;;;4955596;29;20188;-82
2024/01/02 11:13:17;;;;;;;1.30;1.20;;;;;;;;;;4942198;29;20180;-83
2024/01/02 11:16:27;;;;;;;1.97;1.47;;;;;;;;;;4947104;28;20203;-82
2024/01/02 11:19:39;;;;;;;0.93;0.80;;;;;;;;;;4941787;29;20209;-82
2024/01/02 11:22:48;;;;;;;1.23;0.73;;;;;;;;;;4946023;28;20199;-81
2024/01/02 11:26:01;;;;;;;2.57;1.00;;;;;;;;;;4972013;28;20183;-82
2024/01/02 11:29:15;;;;;;;1.20;1.10;;;;;;;;;;4973731;28;20615;-84
2024/01/02 11:32:27;;;;;;;1.93;1.10;;;;;;;;;;4972294;28;20181;-81
2024/01/02 11:35:44;;;;;;;5.27;3.90;;;;;;;;;;4972724;28;20179;-82
2024/01/02 11:39:01;;;;;;;3.53;2.60;;;;;;;;;;4976536;28;20176;-82
2024/01/02 11:42:27;;;;;;;1.43;0.90;;;;;;;;;;4976984;28;20214;-82
2024/01/02 11:45:38;;;;;;;1.70;0.70;;;;;;;;;;4971675;28;20175;-82
2024/01/02 11:49:03;;;;;;;1.40;0.50;;;;;;;;;;4942765;28;20215;-82
2024/01/02 11:52:16;;;;;;;1.63;0.60;;;;;;;;;;4936218;29;20215;-84
2024/01/02 11:55:49;;;;;;;0.73;0.67;;;;;;;;;;4936224;29;20180;-82
2024/01/02 11:59:15;;;;;;;0.60;0.60;;;;;;;;;;4936011;29;20181;-81
2024/01/02 12:02:45;;;;;;;0.97;0.73;;;;;;;;;;4934148;29;20188;-81
2024/01/02 12:05:56;;;;;;;1.37;0.80;;;;;;;;;;4934252;29;20267;-82
2024/01/02 12:09:10;;;;;;;1.60;0.90;;;;;;;;;;4950642;29;20568;-81
2024/01/02 12:12:48;;;;;;;1.60;0.67;;;;;;;;;;4954792;29;20227;-81
2024/01/02 12:15:55;;;;;;;0.80;0.67;;;;;;;;;;4953960;29;20180;-81
2024/01/02 12:19:06;;;;;;;0.67;0.63;;;;;;;;;;4942289;29;20188;-81
2024/01/02 12:22:11;;;;;;;1.20;1.10;;;;;;;;;;4953194;29;20718;-81
2024/01/02 12:25:16;;;;;;;1.10;0.70;;;;;;;;;;4941600;29;20179;-81
2024/01/02 12:28:22;;;;;;;1.27;0.63;;;;;;;;;;4953363;29;20212;-81
2024/01/02 12:31:39;;;;;;;0.73;0.50;;;;;;;;;;4941840;29;20219;-81
2024/01/02 12:35:01;;;;;;;1.37;0.63;;;;;;;;;;4952849;29;20183;-81
2024/01/02 12:38:21;;;;;;;1.20;1.10;;;;;;;;;;4953833;29;20172;-81
2024/01/02 12:41:27;;;;;;;4.43;2.90;;;;;;;;;;4952705;29;20228;-81
2024/01/02 12:44:35;;;;;;;42.20;20.70;;;;;;;;;;4952770;29;20211;-81
2024/01/02 12:47:42;;;;;;;0.77;0.60;;;;;;;;;;4941711;29;20215;-81
2024/01/02 12:50:53;;;;;;;0.60;0.60;;;;;;;;;;4942080;29;20223;-81
2024/01/02 12:54:01;;;;;;;1.63;0.60;;;;;;;;;;4952335;29;20526;-81
2024/01/02 12:57:07;;;;;;;0.70;0.60;;;;;;;;;;4953153;29;20188;-82
2024/01/02 13:00:13;;;;;;;1.20;1.10;;;;;;;;;;4952253;29;20183;-82
2024/01/02 13:03:17;;;;;;;1.70;1.60;;;;;;;;;;4952083;29;20184;-82
2024/01/02 13:06:24;;;;;;;0.70;0.70;;;;;;;;;;4952580;29;20180;-81
2024/01/02 13:09:30;;;;;;;1.67;0.60;;;;;;;;;;4941108;29;20215;-81
2024/01/02 13:12:40;;;;;;;0.70;0.70;;;;;;;;;;4953876;29;20191;-81
2024/01/02 13:15:50;;;;;;;0.87;0.67;;;;;;;;;;4958347;29;20188;-82
2024/01/02 13:18:55;;;;;;;0.50;0.50;;;;;;;;;;4956277;29;20180;-81
2024/01/02 13:22:00;;;;;;;2.43;0.70;;;;;;;;;;4955258;28;20679;-81
2024/01/02 13:25:17;;;;;;;1.83;0.70;;;;;;;;;;4955461;29;20187;-81
2024/01/02 13:28:26;;;;;;;0.53;0.50;;;;;;;;;;4941749;29;20207;-81
2024/01/02 13:31:33;;;;;;;0.70;0.67;;;;;;;;;;4956968;29;20223;-81
2024/01/02 13:34:37;;;;;;;1.17;0.93;;;;;;;;;;4956441;29;20184;-82
2024/01/02 13:37:42;;;;;;;8.30;5.93;;;;;;;;;;4957857;29;20184;-81
2024/01/02 13:40:46;;;;;;;4.03;2.97;;;;;;;;;;4957872;29;20227;-83
2024/01/02 13:43:51;;;;;;;2.47;2.27;;;;;;;;;;4946504;29;20207;-83
2024/01/02 13:46:55;;;;;;;1.30;1.20;;;;;;;;;;4957169;29;20180;-83
2024/01/02 13:50:02;;;;;;;1.20;1.10;;;;;;;;;;4956711;29;20176;-83
2024/01/02 13:53:10;;;;;;;1.20;1.00;;;;;;;;;;4956095;29;20179;-82
2024/01/02 13:56:14;;;;;;;1.00;0.70;;;;;;;;;;4955246;29;20632;-83
2024/01/02 13:59:32;;;;;;;1.27;1.10;;;;;;;;;;4954948;29;20629;-83
2024/01/02 14:02:38;;;;;;;1.40;0.70;;;;;;;;;;4943775;28;20184;-83
2024/01/02 14:05:56;;;;;;;1.53;1.03;;;;;;;;;;4955168;29;20180;-82
2024/01/02 14:09:18;;;;;;;0.70;0.50;;;;;;;;;;4955611;29;20208;-83
2024/01/02 14:12:24;;;;;;;0.73;0.63;;;;;;;;;;4957048;29;20649;-83
2024/01/02 14:15:31;;;;;;;1.30;1.13;;;;;;;;;;4957968;29;20201;-84
2024/01/02 14:18:38;;;;;;;1.50;1.40;;;;;;;;;;4957468;29;20196;-84
2024/01/02 14:21:44;;;;;;;0.80;0.80;;;;;;;;;;4956740;29;20227;-83
2024/01/02 14:25:07;;;;;;;1.87;1.10;;;;;;;;;;4957495;28;20187;-83
2024/01/02 14:28:24;;;;;;;1.30;1.20;;;;;;;;;;4961154;29;20211;-82
2024/01/02 14:31:38;;;;;;;3.93;2.13;;;;;;;;;;4958850;29;20212;-82
2024/01/02 14:35:22;;;;;;;1.90;1.30;;;;;;;;;;4957643;29;20633;-83
2024/01/02 14:39:13;;;;;;;2.30;1.80;;;;;;;;;;4958896;29;20184;-82
2024/01/02 14:42:35;;;;;;;5.03;4.00;;;;;;;;;;4958794;29;20215;-83
2024/01/02 14:45:51;;;;;;;3.50;2.30;;;;;;;;;;4958092;29;20180;-83
2024/01/02 14:49:22;;;;;;;2.53;2.33;;;;;;;;;;4958410;29;20208;-83
2024/01/02 14:52:46;;;;;;;1.30;1.07;;;;;;;;;;4957749;29;20180;-83
2024/01/02 14:56:15;;;;;;;0.67;0.57;;;;;;;;;;4958941;29;20180;-84
2024/01/02 14:59:57;;;;;;;0.83;0.70;;;;;;;;;;4959835;29;20179;-84
2024/01/02 15:03:19;;;;;;;10.30;6.57;;;;;;;;;;4959404;29;20188;-83
2024/01/02 15:06:27;;;;;;;16.73;11.27;;;;;;;;;;4947407;29;20188;-83
2024/01/02 15:09:41;;;;;;;2.90;2.50;;;;;;;;;;4958868;29;20204;-84
2024/01/02 15:13:15;;;;;;;0.83;0.80;;;;;;;;;;4959991;29;20180;-83
2024/01/02 15:16:25;;;;;;;6.63;5.00;;;;;;;;;;4959728;29;20183;-84
2024/01/02 15:19:43;;;;;;;7.93;5.10;;;;;;;;;;4958797;29;20175;-84
2024/01/02 15:23:12;;;;;;;20.53;12.77;;;;;;;;;;4959331;28;20180;-81
2024/01/02 15:26:36;;;;;;;3.10;2.60;;;;;;;;;;4958217;29;20179;-82
2024/01/02 15:29:44;;;;;;;1.73;1.53;;;;;;;;;;4958902;29;20211;-81
2024/01/02 15:32:52;;;;;;;1.73;1.63;;;;;;;;;;4958835;29;20180;-81
2024/01/02 15:36:09;;;;;;;2.53;2.17;;;;;;;;;;4958561;29;20188;-82
2024/01/02 15:39:18;;;;;;;1.00;0.87;;;;;;;;;;4946929;29;20180;-81
2024/01/02 15:42:31;;;;;;;2.10;0.60;;;;;;;;;;4959670;29;20204;-81
2024/01/02 15:45:43;;;;;;;3.17;0.80;;;;;;;;;;4958268;29;20192;-81
2024/01/02 15:49:05;;;;;;;0.50;0.50;;;;;;;;;;4946087;29;20677;-81
2024/01/02 15:52:13;;;;;;;8.43;6.47;;;;;;;;;;4957668;29;20216;-83
2024/01/02 15:55:21;;;;;;;1.43;0.87;;;;;;;;;;4957507;29;20187;-82
2024/01/02 15:58:26;;;;;;;2.00;1.10;;;;;;;;;;4956066;29;20696;-83
2024/01/02 16:01:32;;;;;;;0.80;0.60;;;;;;;;;;4955608;29;20219;-83
2024/01/02 16:04:43;;;;;;;0.60;0.50;;;;;;;;;;5002921;28;20184;-83
2024/01/02 16:07:57;;;;;;;0.57;0.53;;;;;;;;;;4957157;29;20549;-83
2024/01/02 16:11:43;;;;;;;0.93;0.93;;;;;;;;;;4945020;29;20212;-83
2024/01/02 16:15:20;;;;;;;1.13;0.70;;;;;;;;;;4955928;29;20188;-83
2024/01/02 16:19:04;;;;;;;0.60;0.50;;;;;;;;;;4956564;29;20176;-83
2024/01/02 16:22:30;;;;;;;1.23;0.50;;;;;;;;;;4956728;29;20215;-83
2024/01/02 16:26:07;;;;;;;0.77;0.60;;;;;;;;;;4944747;29;20206;-83
2024/01/02 16:29:38;;;;;;;5.60;3.60;;;;;;;;;;4963475;28;20232;-83
2024/01/02 16:33:11;;;;;;;5.20;3.60;;;;;;;;;;4957400;29;20578;-83
2024/01/02 16:36:27;;;;;;;1.00;0.90;;;;;;;;;;4982279;23;20232;-83
2024/01/02 16:39:34;;;;;;;0.60;0.60;;;;;;;;;;4938616;29;20172;-84
2024/01/02 16:42:41;;;;;;;1.20;0.70;;;;;;;;;;4984457;28;20636;-83
2024/01/02 16:45:45;;;;;;;0.73;0.73;;;;;;;;;;4983794;28;20584;-82
2024/01/02 16:48:49;;;;;;;0.60;0.60;;;;;;;;;;4938405;29;20216;-86
2024/01/02 16:52:03;;;;;;;1.30;0.80;;;;;;;;;;4949516;29;20596;-81
2024/01/02 16:55:08;;;;;;;0.63;0.50;;;;;;;;;;4938290;29;20176;-81
2024/01/02 16:58:14;;;;;;;2.53;0.60;;;;;;;;;;4936868;29;20189;-83
2024/01/02 17:01:20;;;;;;;1.33;0.60;;;;;;;;;;4948389;29;20177;-80
2024/01/02 17:04:24;;;;;;;1.53;0.70;;;;;;;;;;4938300;29;20184;-83
2024/01/02 17:07:31;;;;;;;1.00;0.70;;;;;;;;;;4937927;29;20196;-82
2024/01/02 17:10:35;;;;;;;1.07;0.90;;;;;;;;;;4938036;29;20216;-82
2024/01/02 17:13:40;;;;;;;2.80;2.50;;;;;;;;;;4936810;29;20189;-83
2024/01/02 17:16:44;;;;;;;2.10;1.73;;;;;;;;;;4937506;29;20223;-82
2024/01/02 17:19:51;;;;;;;10.00;5.03;;;;;;;;;;4938388;29;20196;-82
2024/01/02 17:22:56;;;;;;;7.63;3.80;;;;;;;;;;4927996;29;20185;-82
2024/01/02 17:26:00;;;;;;;6.73;3.73;;;;;;;;;;4937957;29;20224;-82
2024/01/02 17:29:06;;;;;;;6.63;4.87;;;;;;;;;;4938310;29;20216;-82
2024/01/02 17:32:10;;;;;;;2.83;2.40;;;;;;;;;;4938287;29;20188;-83
2024/01/02 17:35:15;;;;;;;1.90;1.43;;;;;;;;;;4939578;29;20231;-84
2024/01/02 17:38:23;;;;;;;1.10;1.00;;;;;;;;;;4938996;29;20184;-82
2024/01/02 17:41:29;;;;;;;0.80;0.70;;;;;;;;;;4940664;29;20184;-82
2024/01/02 17:44:35;;;;;;;0.90;0.90;;;;;;;;;;4938863;29;20629;-82
2024/01/02 17:47:39;;;;;;;0.80;0.60;;;;;;;;;;4926663;29;20184;-82
2024/01/02 17:50:54;;;;;;;1.07;0.70;;;;;;;;;;4904960;29;20220;-82
2024/01/02 17:54:00;;;;;;;3.00;0.90;;;;;;;;;;4948534;29;20184;-83
2024/01/02 17:57:19;;;;;;;1.37;1.10;;;;;;;;;;4938439;29;20223;-82
2024/01/02 18:00:26;;;;;;;0.63;0.63;;;;;;;;;;4928475;29;20181;-82
2024/01/02 18:03:56;;;;;;;1.00;0.90;;;;;;;;;;4951811;29;20184;-82
2024/01/02 18:07:38;;;;;;;0.90;0.70;;;;;;;;;;4940874;29;20215;-81
2024/01/02 18:11:11;;;;;;;1.70;1.60;;;;;;;;;;4940892;29;20669;-82
2024/01/02 18:14:30;;;;;;;6.50;5.90;;;;;;;;;;4940855;29;20192;-83
2024/01/02 18:17:57;;;;;;;3.07;2.00;;;;;;;;;;4941575;29;20189;-81
2024/01/02 18:21:15;;;;;;;3.77;2.43;;;;;;;;;;4939647;29;20180;-81
2024/01/02 18:24:37;;;;;;;0.90;0.60;;;;;;;;;;4929240;29;20184;-82
2024/01/02 18:27:49;;;;;;;0.70;0.63;;;;;;;;;;4987995;28;20181;-80
2024/01/02 18:31:05;;;;;;;0.80;0.70;;;;;;;;;;4951738;29;20204;-80
2024/01/02 18:34:57;;;;;;;1.10;0.77;;;;;;;;;;4940696;29;20189;-81
2024/01/02 18:38:16;;;;;;;0.70;0.70;;;;;;;;;;4929125;29;20181;-81
2024/01/02 18:41:37;;;;;;;51.87;32.13;;;;;;;;;;4941541;29;20169;-81
2024/01/02 18:45:05;;;;;;;9.47;6.73;;;;;;;;;;4929205;29;20180;-81
2024/01/02 18:48:17;;;;;;;14.73;10.93;;;;;;;;;;4987355;28;20176;-81
2024/01/02 18:51:40;;;;;;;6.50;4.60;;;;;;;;;;4930239;29;20180;-82
2024/01/02 18:54:51;;;;;;;1.57;1.37;;;;;;;;;;4941553;29;20180;-83
2024/01/02 18:57:55;;;;;;;1.07;0.80;;;;;;;;;;4940668;29;20180;-81